This is the latest recevied weather packets stored in our database for station/object DH9NFM-12. If no packets are shown the sender has not sent any weather packets the latest 10 day(s).
| Time | Temp. | Humidity | Pressure | Rain* | Wind** | Luminosity | Snow |
|---|---|---|---|---|---|---|---|
| 1777909464 | 19.44° C | 57% | 1011.5 hPa | 0 mm | - | - | - |
| 1777908840 | 19.44° C | 57% | 1011.5 hPa | 0 mm | - | - | - |
| 1777908215 | 20° C | 55% | 1011.5 hPa | 0 mm | - | - | - |
| 1777907590 | 19.44° C | 56% | 1011.6 hPa | 0 mm | - | - | - |
| 1777906966 | 19.44° C | 55% | 1011.7 hPa | 0 mm | - | - | - |
| 1777906341 | 20° C | 55% | 1011.7 hPa | 0 mm | - | - | - |
| 1777905716 | 20° C | 55% | 1011.6 hPa | 0 mm | - | - | - |
| 1777905092 | 20.56° C | 54% | 1011.7 hPa | 0 mm | - | - | - |
| 1777904467 | 21.67° C | 48% | 1011.8 hPa | 0 mm | - | - | - |
| 1777903842 | 21.67° C | 50% | 1011.7 hPa | 0 mm | - | - | - |
| 1777903218 | 20° C | 54% | 1011.8 hPa | 0 mm | - | - | - |
| 1777902593 | 19.44° C | 55% | 1012 hPa | 0 mm | - | - | - |
| 1777901968 | 21.11° C | 50% | 1012 hPa | 0 mm | - | - | - |
| 1777901344 | 20.56° C | 52% | 1012.1 hPa | 0 mm | - | - | - |
| 1777900719 | 19.44° C | 55% | 1012.2 hPa | 0 mm | - | - | - |
| 1777900094 | 20.56° C | 51% | 1012.2 hPa | 0 mm | - | - | - |
| 1777899470 | 21.11° C | 53% | 1012.3 hPa | 0 mm | - | - | - |
| 1777898845 | 21.11° C | 51% | 1012.3 hPa | 0 mm | - | - | - |
| 1777898221 | 20.56° C | 55% | 1012.4 hPa | 0 mm | - | - | - |
| 1777897596 | 20° C | 54% | 1012.5 hPa | 0 mm | - | - | - |
| 1777896971 | 20° C | 54% | 1012.5 hPa | 0 mm | - | - | - |
| 1777896346 | 20° C | 56% | 1012.5 hPa | 0 mm | - | - | - |
| 1777895722 | 19.44° C | 55% | 1012.6 hPa | 0 mm | - | - | - |
| 1777895097 | 20.56° C | 56% | 1012.6 hPa | 0 mm | - | - | - |
| 1777894473 | 20° C | 54% | 1012.7 hPa | 0 mm | - | - | - |
* Rain latest hour (hover to see other rain measurements)
** Current wind speed in m/s (hover to see current wind gust speed)